Time;durP1;ratioP1;P1;durP2;ratioP2;P2;SDS_P1;SDS_P2;PMS_P1;PMS_P2;Temp;Humidity;BMP_temperature;BMP_pressure;BME280_temperature;BME280_humidity;BME280_pressure;Samples;Min_cycle;Max_cycle;Signal;HPM_P1;HPM_P2
2023/12/05 00:00:20;;;;;;;;;;;;;;;22.68;29.87;100012.00;5095021;28;19914;-44
2023/12/05 00:02:46;;;;;;;;;;;;;;;22.62;29.88;100004.75;5083279;28;19922;-46
2023/12/05 00:05:11;;;;;;;;;;;;;;;22.59;29.81;100010.59;5007995;28;19918;-46
2023/12/05 00:07:37;;;;;;;;;;;;;;;22.54;30.28;100011.22;5011719;28;20384;-48
2023/12/05 00:10:02;;;;;;;;;;;;;;;22.50;30.22;100012.69;5014152;28;19937;-45
2023/12/05 00:12:27;;;;;;;;;;;;;;;22.48;30.07;100008.56;5014644;28;19924;-45
2023/12/05 00:14:52;;;;;;;;;;;;;;;22.46;30.23;100006.03;5012530;28;19946;-44
2023/12/05 00:17:18;;;;;;;;;;;;;;;22.41;30.09;100006.69;5010056;28;19921;-46
2023/12/05 00:19:43;;;;;;;;;;;;;;;22.40;30.48;100012.34;5008336;28;19914;-50
2023/12/05 00:22:08;;;;;;;;;;;;;;;22.38;30.22;100003.56;5014585;28;19917;-47
2023/12/05 00:24:34;;;;;;;;;;;;;;;22.35;30.20;100001.31;5012771;28;19918;-48
2023/12/05 00:26:59;;;;;;;;;;;;;;;22.33;30.51;99995.25;5012435;28;19913;-50
2023/12/05 00:29:24;;;;;;;;;;;;;;;22.31;30.32;99995.47;5012262;28;19914;-48
2023/12/05 00:31:49;;;;;;;;;;;;;;;22.31;30.21;100000.06;5010001;28;20000;-48
2023/12/05 00:34:14;;;;;;;;;;;;;;;22.30;30.10;99998.38;5008429;28;19957;-49
2023/12/05 00:36:39;;;;;;;;;;;;;;;22.28;30.20;99992.38;5014332;28;19914;-48
2023/12/05 00:39:05;;;;;;;;;;;;;;;22.28;30.32;99995.91;5080289;28;20010;-48
2023/12/05 00:41:30;;;;;;;;;;;;;;;22.26;30.58;99998.00;5010965;28;19980;-48
2023/12/05 00:43:55;;;;;;;;;;;;;;;22.27;30.41;99996.97;5010743;28;19921;-50
2023/12/05 00:46:23;;;;;;;;;;;;;;;22.26;30.17;99997.16;5011985;28;19951;-48
2023/12/05 00:48:48;;;;;;;;;;;;;;;22.24;30.52;99999.25;5008524;28;19910;-50
2023/12/05 00:51:13;;;;;;;;;;;;;;;22.23;30.38;99992.19;5016300;28;19914;-47
2023/12/05 00:53:38;;;;;;;;;;;;;;;22.23;30.23;99994.88;5012387;28;20401;-45
2023/12/05 00:56:06;;;;;;;;;;;;;;;22.23;30.40;99994.88;5009699;28;19953;-45
2023/12/05 00:58:31;;;;;;;;;;;;;;;22.20;30.40;99988.84;5010797;28;20337;-49
2023/12/05 01:00:56;;;;;;;;;;;;;;;22.20;30.32;99996.97;5007387;28;19914;-47
2023/12/05 01:03:22;;;;;;;;;;;;;;;22.19;30.48;99991.75;5009438;28;19914;-46
2023/12/05 01:05:47;;;;;;;;;;;;;;;22.17;30.48;99992.00;5017460;28;19914;-48
2023/12/05 01:08:12;;;;;;;;;;;;;;;22.16;30.58;99990.31;5015645;28;19913;-46
2023/12/05 01:10:37;;;;;;;;;;;;;;;22.16;30.26;99986.78;5005935;28;19975;-51
2023/12/05 01:13:02;;;;;;;;;;;;;;;22.17;30.44;99980.31;5008613;28;19918;-49
2023/12/05 01:15:28;;;;;;;;;;;;;;;22.15;30.56;99980.53;5009766;28;19922;-47
2023/12/05 01:17:53;;;;;;;;;;;;;;;22.17;30.46;99985.72;5012050;28;20318;-47
2023/12/05 01:20:19;;;;;;;;;;;;;;;22.17;30.41;99977.59;5011817;28;19929;-45
2023/12/05 01:22:44;;;;;;;;;;;;;;;22.15;30.38;99980.53;5016242;28;20055;-50
2023/12/05 01:25:09;;;;;;;;;;;;;;;22.14;30.49;99978.03;5088962;28;20395;-50
2023/12/05 01:27:35;;;;;;;;;;;;;;;22.14;30.33;99980.75;5007198;28;19925;-48
2023/12/05 01:30:00;;;;;;;;;;;;;;;22.15;30.42;99977.81;5008595;28;19918;-49
2023/12/05 01:32:25;;;;;;;;;;;;;;;22.14;30.55;99969.91;5005553;28;19921;-49
2023/12/05 01:34:50;;;;;;;;;;;;;;;22.14;30.15;99972.63;5010707;28;19968;-47
2023/12/05 01:37:15;;;;;;;;;;;;;;;22.13;30.24;99984.47;5012424;28;19917;-49
2023/12/05 01:39:41;;;;;;;;;;;;;;;22.12;30.26;99977.38;5012623;28;19913;-51
2023/12/05 01:42:06;;;;;;;;;;;;;;;22.12;30.47;99982.78;5008511;28;19918;-47
2023/12/05 01:44:31;;;;;;;;;;;;;;;22.12;30.37;99975.53;5006356;28;19913;-48
2023/12/05 01:46:56;;;;;;;;;;;;;;;22.12;30.46;99977.38;5092456;28;19922;-46
2023/12/05 01:49:21;;;;;;;;;;;;;;;22.13;30.46;99985.34;5087271;28;19918;-46
2023/12/05 01:51:47;;;;;;;;;;;;;;;22.12;30.26;99977.38;5011693;28;19920;-49
2023/12/05 01:54:12;;;;;;;;;;;;;;;22.11;30.19;99981.97;5079876;28;19922;-46
2023/12/05 01:56:37;;;;;;;;;;;;;;;22.11;30.47;99975.72;5008594;28;19964;-47
2023/12/05 01:59:02;;;;;;;;;;;;;;;22.10;30.45;99979.47;5011762;28;19914;-47
2023/12/05 02:01:27;;;;;;;;;;;;;;;22.10;30.48;99979.47;5011178;28;19921;-49
2023/12/05 02:03:53;;;;;;;;;;;;;;;22.09;30.53;99981.34;5079088;28;19909;-47
2023/12/05 02:06:18;;;;;;;;;;;;;;;22.08;30.27;99976.13;5010245;28;19988;-45
2023/12/05 02:08:44;;;;;;;;;;;;;;;22.06;30.55;99978.25;5086069;28;19960;-46
2023/12/05 02:11:10;;;;;;;;;;;;;;;22.04;30.60;99977.59;5008807;28;19918;-45
2023/12/05 02:13:35;;;;;;;;;;;;;;;22.04;30.60;99977.59;5006073;28;20409;-45
2023/12/05 02:16:18;;;;;;;;;;;;;;;22.01;30.59;99978.88;5013955;28;19917;-45
2023/12/05 02:18:46;;;;;;;;;;;;;;;22.01;30.31;99980.75;5011970;28;19917;-48
2023/12/05 02:21:24;;;;;;;;;;;;;;;21.99;30.61;99974.72;5011253;28;19914;-51
2023/12/05 02:24:05;;;;;;;;;;;;;;;21.94;30.72;99976.16;5011743;28;19975;-47
2023/12/05 02:26:52;;;;;;;;;;;;;;;21.93;30.72;99971.81;5078498;28;19924;-48
2023/12/05 02:29:18;;;;;;;;;;;;;;;21.93;30.53;99969.09;5009673;28;19914;-47
2023/12/05 02:31:43;;;;;;;;;;;;;;;21.92;30.74;99967.44;5017986;28;19963;-44
2023/12/05 02:34:08;;;;;;;;;;;;;;;21.92;30.47;99967.44;5010924;28;19944;-49
2023/12/05 02:36:39;;;;;;;;;;;;;;;21.92;30.70;99967.44;5009001;28;19935;-46
2023/12/05 02:39:12;;;;;;;;;;;;;;;21.90;30.58;99965.97;5009827;28;19914;-47
2023/12/05 02:41:38;;;;;;;;;;;;;;;21.88;30.53;99971.63;5004686;28;19960;-50
2023/12/05 02:44:07;;;;;;;;;;;;;;;21.89;30.83;99969.72;5085376;28;19914;-45
2023/12/05 02:46:32;;;;;;;;;;;;;;;21.87;30.83;99967.22;5081527;28;19920;-46
2023/12/05 02:48:57;;;;;;;;;;;;;;;21.88;30.89;99968.09;5083123;28;19914;-45
2023/12/05 02:51:22;;;;;;;;;;;;;;;21.84;30.88;99964.13;5080217;28;19928;-48
2023/12/05 02:53:47;;;;;;;;;;;;;;;21.80;31.03;99971.00;5081533;28;19922;-45
2023/12/05 02:56:13;;;;;;;;;;;;;;;21.76;30.96;99972.47;5007185;28;19936;-45
2023/12/05 02:58:38;;;;;;;;;;;;;;;21.75;31.07;99966.22;5006827;28;19924;-45
2023/12/05 03:01:03;;;;;;;;;;;;;;;21.77;30.84;99974.94;5013102;28;19981;-47
2023/12/05 03:03:28;;;;;;;;;;;;;;;21.77;30.71;99969.53;5011816;28;19981;-46
2023/12/05 03:05:53;;;;;;;;;;;;;;;21.78;30.96;99970.38;5007440;28;19914;-49
2023/12/05 03:08:19;;;;;;;;;;;;;;;21.78;30.64;99973.06;5002781;28;19921;-47
2023/12/05 03:10:44;;;;;;;;;;;;;;;21.80;30.91;99968.31;5014472;28;19918;-50
2023/12/05 03:13:09;;;;;;;;;;;;;;;21.78;30.56;99960.38;5009309;28;19925;-49
2023/12/05 03:15:34;;;;;;;;;;;;;;;21.75;30.96;99965.38;5013923;28;19932;-45
2023/12/05 03:17:59;;;;;;;;;;;;;;;21.75;30.79;99965.38;5015664;28;19918;-46
2023/12/05 03:20:25;;;;;;;;;;;;;;;21.75;30.97;99968.94;5011455;28;19917;-45
2023/12/05 03:22:50;;;;;;;;;;;;;;;21.75;30.69;99966.22;5012864;28;19969;-47
2023/12/05 03:25:15;;;;;;;;;;;;;;;21.76;30.99;99964.34;5005700;28;19914;-46
2023/12/05 03:27:40;;;;;;;;;;;;;;;21.77;30.74;99966.84;5011932;28;19913;-45
2023/12/05 03:30:06;;;;;;;;;;;;;;;21.77;30.99;99964.13;5011791;28;19914;-45
2023/12/05 03:32:31;;;;;;;;;;;;;;;21.78;30.84;99956.84;5012616;28;19921;-46
2023/12/05 03:34:56;;;;;;;;;;;;;;;21.76;30.96;99959.75;5093741;28;19917;-45
2023/12/05 03:37:21;;;;;;;;;;;;;;;21.78;30.57;99960.38;5011486;28;19962;-45
2023/12/05 03:39:46;;;;;;;;;;;;;;;21.77;30.59;99950.59;5013400;28;19921;-45
2023/12/05 03:42:12;;;;;;;;;;;;;;;21.78;30.70;99948.72;5012456;28;19988;-45
2023/12/05 03:44:37;;;;;;;;;;;;;;;21.79;30.88;99951.25;5012621;28;19918;-45
2023/12/05 03:47:02;;;;;;;;;;;;;;;21.78;30.96;99949.53;5012862;28;19914;-45
2023/12/05 03:49:27;;;;;;;;;;;;;;;21.79;30.62;99951.25;5012264;28;19921;-46
2023/12/05 03:51:52;;;;;;;;;;;;;;;21.79;30.88;99947.66;5014097;28;19944;-47
2023/12/05 03:54:18;;;;;;;;;;;;;;;21.79;30.85;99945.81;5009113;28;19944;-46
2023/12/05 03:56:43;;;;;;;;;;;;;;;21.76;30.96;99945.41;5011001;28;19920;-44
2023/12/05 03:59:08;;;;;;;;;;;;;;;21.76;30.68;99945.41;5007812;28;19918;-47
2023/12/05 04:01:33;;;;;;;;;;;;;;;21.77;30.87;99947.06;5010719;28;19914;-48
2023/12/05 04:03:59;;;;;;;;;;;;;;;21.77;30.80;99953.31;5016103;28;19967;-46
2023/12/05 04:06:24;;;;;;;;;;;;;;;21.73;30.65;99954.75;5009925;28;19914;-46
2023/12/05 04:08:49;;;;;;;;;;;;;;;21.73;30.99;99952.06;5008262;28;19930;-48
2023/12/05 04:11:14;;;;;;;;;;;;;;;21.68;30.83;99954.56;5014898;28;19913;-46
2023/12/05 04:13:40;;;;;;;;;;;;;;;21.63;30.99;99951.66;5010402;28;20036;-47
2023/12/05 04:16:05;;;;;;;;;;;;;;;21.58;31.13;99949.59;5081539;28;19922;-49
2023/12/05 04:18:31;;;;;;;;;;;;;;;21.56;31.12;99961.66;5011331;28;19922;-45
2023/12/05 04:20:56;;;;;;;;;;;;;;;21.57;30.93;99960.59;5008645;28;20288;-46
2023/12/05 04:23:21;;;;;;;;;;;;;;;21.58;30.97;99971.22;5012065;28;19956;-45
2023/12/05 04:25:46;;;;;;;;;;;;;;;21.53;31.19;99965.59;5017879;28;19921;-46
2023/12/05 04:28:11;;;;;;;;;;;;;;;21.51;31.08;99961.44;5017580;28;19913;-47
2023/12/05 04:30:36;;;;;;;;;;;;;;;21.48;31.11;99962.69;5015190;28;19914;-46
2023/12/05 04:33:02;;;;;;;;;;;;;;;21.51;31.11;99958.75;5009584;28;20012;-46
2023/12/05 04:35:27;;;;;;;;;;;;;;;21.48;31.07;99962.69;5007211;28;19966;-46
2023/12/05 04:37:52;;;;;;;;;;;;;;;21.48;31.40;99962.69;5004452;28;19936;-46
2023/12/05 04:40:19;;;;;;;;;;;;;;;21.48;31.28;99967.28;5016319;28;19918;-46
2023/12/05 04:42:44;;;;;;;;;;;;;;;21.45;31.43;99963.97;5015170;28;20348;-44
2023/12/05 04:45:09;;;;;;;;;;;;;;;21.44;31.48;99969.56;5013765;28;19985;-45
2023/12/05 04:47:34;;;;;;;;;;;;;;;21.44;31.50;99972.25;5008625;28;19920;-46
2023/12/05 04:49:59;;;;;;;;;;;;;;;21.41;31.15;99965.41;5005639;28;19918;-46
2023/12/05 04:52:24;;;;;;;;;;;;;;;21.40;31.43;99971.84;5011952;28;19913;-47
2023/12/05 04:54:50;;;;;;;;;;;;;;;21.40;31.49;99971.84;5012487;28;20025;-46
2023/12/05 04:57:15;;;;;;;;;;;;;;;21.39;31.38;99972.88;5013134;28;19924;-46
2023/12/05 04:59:40;;;;;;;;;;;;;;;21.39;31.39;99972.88;5015372;28;19918;-48
2023/12/05 05:02:05;;;;;;;;;;;;;;;21.43;31.37;99979.53;5008863;28;20391;-46
2023/12/05 05:04:30;;;;;;;;;;;;;;;21.41;31.13;99984.34;5003864;28;19956;-49
2023/12/05 05:06:56;;;;;;;;;;;;;;;21.38;31.40;99987.44;5097090;28;20380;-48
2023/12/05 05:09:21;;;;;;;;;;;;;;;21.37;31.38;99993.91;5010512;28;19918;-45
2023/12/05 05:11:46;;;;;;;;;;;;;;;21.39;31.22;99986.41;5012348;28;19924;-45
2023/12/05 05:14:11;;;;;;;;;;;;;;;21.39;31.26;99989.09;5012926;28;19933;-45
2023/12/05 05:16:37;;;;;;;;;;;;;;;21.36;31.50;99977.88;5011638;28;19921;-46
2023/12/05 05:19:02;;;;;;;;;;;;;;;21.33;31.63;99989.13;5005335;28;19982;-47
2023/12/05 05:21:27;;;;;;;;;;;;;;;21.29;31.37;99980.56;5009996;28;19920;-46
2023/12/05 05:23:52;;;;;;;;;;;;;;;21.27;31.41;99977.22;5010597;28;19921;-46
2023/12/05 05:26:18;;;;;;;;;;;;;;;21.26;31.66;99980.97;5016098;28;19944;-45
2023/12/05 05:28:43;;;;;;;;;;;;;;;21.27;31.78;99979.09;5012574;28;19943;-45
2023/12/05 05:31:08;;;;;;;;;;;;;;;21.24;31.74;99983.06;5015141;28;19935;-45
2023/12/05 05:33:33;;;;;;;;;;;;;;;21.22;31.59;99987.81;5008524;28;19929;-47
2023/12/05 05:35:58;;;;;;;;;;;;;;;21.20;31.52;99988.03;5008259;28;19922;-47
2023/12/05 05:38:23;;;;;;;;;;;;;;;21.18;31.83;99984.69;5008011;28;19924;-45
2023/12/05 05:40:49;;;;;;;;;;;;;;;21.19;31.88;99982.81;5008660;28;19917;-46
2023/12/05 05:43:14;;;;;;;;;;;;;;;21.17;31.78;99990.31;5011012;28;19918;-45
2023/12/05 05:45:39;;;;;;;;;;;;;;;21.18;31.82;99986.56;5009297;28;20531;-46
2023/12/05 05:48:05;;;;;;;;;;;;;;;21.16;32.00;99989.47;5005531;28;19918;-45
2023/12/05 05:50:30;;;;;;;;;;;;;;;21.15;32.04;99990.53;5010430;28;19920;-47
2023/12/05 05:52:55;;;;;;;;;;;;;;;21.16;31.75;99986.78;5012848;28;19921;-45
2023/12/05 05:55:20;;;;;;;;;;;;;;;21.16;31.89;99994.88;5003908;28;19922;-48
2023/12/05 05:57:45;;;;;;;;;;;;;;;21.16;31.98;99994.06;5012033;28;19914;-45
2023/12/05 06:00:11;;;;;;;;;;;;;;;21.15;32.09;99979.72;5010081;28;19913;-48
2023/12/05 06:02:37;;;;;;;;;;;;;;;21.17;32.10;99984.91;5009033;28;19966;-48
2023/12/05 06:05:02;;;;;;;;;;;;;;;21.14;32.30;99988.84;5011372;28;19925;-45
2023/12/05 06:07:27;;;;;;;;;;;;;;;21.14;32.32;99991.53;5038173;28;20403;-44
2023/12/05 06:09:52;;;;;;;;;;;;;;;21.13;32.08;99989.88;5013673;28;20027;-47
2023/12/05 06:12:18;;;;;;;;;;;;;;;21.14;32.27;99988.84;5017550;28;19914;-45
2023/12/05 06:14:43;;;;;;;;;;;;;;;21.13;32.14;99989.88;5017468;28;19928;-45
2023/12/05 06:17:09;;;;;;;;;;;;;;;21.14;32.18;99991.53;5012216;28;19918;-47
2023/12/05 06:19:34;;;;;;;;;;;;;;;21.16;32.41;99996.75;5014375;28;20439;-44
2023/12/05 06:21:59;;;;;;;;;;;;;;;21.15;32.33;100000.47;5015249;28;19918;-45
2023/12/05 06:24:26;;;;;;;;;;;;;;;21.12;32.54;99993.63;5016537;28;20003;-44
2023/12/05 06:26:52;;;;;;;;;;;;;;;21.11;32.61;99999.22;5012750;28;19977;-45
2023/12/05 06:29:17;;;;;;;;;;;;;;;21.12;32.62;100000.91;5016496;28;19918;-45
2023/12/05 06:31:42;;;;;;;;;;;;;;;21.11;32.37;100007.34;5015593;28;19999;-43
2023/12/05 06:34:07;;;;;;;;;;;;;;;21.11;32.43;100007.34;5015495;28;19924;-44
2023/12/05 06:36:32;;;;;;;;;;;;;;;21.10;32.43;100009.22;5017756;28;20290;-43
2023/12/05 06:38:58;;;;;;;;;;;;;;;21.11;32.67;100010.03;5015753;28;19913;-44
2023/12/05 06:41:23;;;;;;;;;;;;;;;21.08;32.75;100008.59;5012628;28;19921;-46
2023/12/05 06:43:48;;;;;;;;;;;;;;;21.10;32.75;100009.22;5013122;28;19917;-45
2023/12/05 06:46:13;;;;;;;;;;;;;;;21.10;32.60;100016.50;5016219;28;19942;-46
2023/12/05 06:48:39;;;;;;;;;;;;;;;21.09;32.73;100010.25;5016696;28;19976;-44
2023/12/05 06:51:04;;;;;;;;;;;;;;;21.10;32.51;100013.78;5015801;28;19918;-44
2023/12/05 06:53:29;;;;;;;;;;;;;;;21.10;32.50;100020.03;5012054;28;19926;-43
2023/12/05 06:55:56;;;;;;;;;;;;;;;21.13;32.64;100019.63;5013364;28;20303;-44
2023/12/05 06:58:25;;;;;;;;;;;;;;;21.16;32.63;100021.09;5013303;28;19917;-45
2023/12/05 07:00:50;;;;;;;;;;;;;;;21.16;32.69;100023.78;5010266;28;19921;-43
2023/12/05 07:03:15;;;;;;;;;;;;;;;21.16;32.56;100027.31;5013337;28;20059;-44
2023/12/05 07:05:40;;;;;;;;;;;;;;;21.17;32.41;100028.97;5081589;28;19924;-45
2023/12/05 07:08:06;;;;;;;;;;;;;;;21.17;32.52;100030.84;5015844;28;19935;-43
2023/12/05 07:10:32;;;;;;;;;;;;;;;21.16;32.45;100027.31;5018084;28;19917;-44
2023/12/05 07:12:57;;;;;;;;;;;;;;;21.17;32.45;100036.25;5018358;28;19921;-46
2023/12/05 07:15:22;;;;;;;;;;;;;;;21.16;32.66;100032.72;5010479;28;19942;-44
2023/12/05 07:17:47;;;;;;;;;;;;;;;21.16;32.64;100035.44;5011166;28;19928;-44
2023/12/05 07:20:12;;;;;;;;;;;;;;;21.14;32.55;100047.47;5015369;28;19924;-44
2023/12/05 07:22:38;;;;;;;;;;;;;;;21.12;32.74;100038.75;5013486;28;19914;-43
2023/12/05 07:25:03;;;;;;;;;;;;;;;21.09;32.73;100045.38;5026438;28;19942;-43
2023/12/05 07:27:29;;;;;;;;;;;;;;;21.04;32.94;100050.56;5018230;28;19960;-43
2023/12/05 07:29:54;;;;;;;;;;;;;;;21.03;32.88;100056.19;5005602;28;19921;-43
2023/12/05 07:32:19;;;;;;;;;;;;;;;21.01;33.12;100058.25;5012466;28;19918;-46
2023/12/05 07:34:44;;;;;;;;;;;;;;;20.97;33.07;100060.53;5011895;28;19929;-42
2023/12/05 07:37:10;;;;;;;;;;;;;;;21.01;33.34;100058.25;5007338;28;19914;-42
2023/12/05 07:39:36;;;;;;;;;;;;;;;20.99;33.35;100063.88;5014466;28;19914;-47
2023/12/05 07:42:01;;;;;;;;;;;;;;;21.02;33.02;100063.44;5004940;28;19918;-44
2023/12/05 07:44:27;;;;;;;;;;;;;;;21.05;32.98;100068.47;5029722;28;19919;-48
2023/12/05 07:46:52;;;;;;;;;;;;;;;21.07;32.88;100073.66;5014711;28;19917;-46
2023/12/05 07:49:17;;;;;;;;;;;;;;;21.06;33.13;100075.53;5023275;28;20036;-49
2023/12/05 07:51:42;;;;;;;;;;;;;;;21.07;33.01;100076.34;5013428;28;20452;-48
2023/12/05 07:54:08;;;;;;;;;;;;;;;21.05;33.05;100081.97;5011619;28;20435;-44
2023/12/05 07:56:33;;;;;;;;;;;;;;;21.04;33.01;100084.88;5085720;28;20368;-48
2023/12/05 07:58:58;;;;;;;;;;;;;;;21.02;33.25;100079.66;5018394;28;19918;-46
2023/12/05 08:01:23;;;;;;;;;;;;;;;21.01;33.24;100083.41;5014084;28;20300;-44
2023/12/05 08:03:48;;;;;;;;;;;;;;;21.01;33.02;100090.69;5018209;28;19932;-44
2023/12/05 08:06:14;;;;;;;;;;;;;;;21.01;33.02;100096.91;5013753;28;19963;-43
2023/12/05 08:08:39;;;;;;;;;;;;;;;21.00;33.33;100099.84;5009850;28;19960;-46
2023/12/05 08:11:05;;;;;;;;;;;;;;;21.02;33.17;100108.56;5009045;28;19924;-46
2023/12/05 08:13:30;;;;;;;;;;;;;;;21.04;32.80;100120.03;5007555;28;19922;-47
2023/12/05 08:15:55;;;;;;;;;;;;;;;21.05;32.95;100119.81;5012716;28;19914;-44
2023/12/05 08:18:21;;;;;;;;;;;;;;;21.05;32.99;100117.09;5015740;28;19917;-45
2023/12/05 08:20:46;;;;;;;;;;;;;;;21.06;33.02;100123.34;5012948;28;20322;-45
2023/12/05 08:23:11;;;;;;;;;;;;;;;21.07;33.00;100125.00;5009698;28;20376;-44
2023/12/05 08:25:36;;;;;;;;;;;;;;;21.06;32.99;100124.16;5007732;28;20492;-45
2023/12/05 08:28:01;;;;;;;;;;;;;;;21.07;32.93;100123.16;5091557;28;19914;-46
2023/12/05 08:30:27;;;;;;;;;;;;;;;21.06;32.89;100124.16;5012882;28;19917;-46
2023/12/05 08:32:52;;;;;;;;;;;;;;;21.07;33.17;100123.16;5015196;28;19914;-47
2023/12/05 08:35:17;;;;;;;;;;;;;;;21.08;33.04;100132.09;5091462;28;19917;-46
2023/12/05 08:37:42;;;;;;;;;;;;;;;21.09;32.84;100131.88;5008251;28;20376;-45
2023/12/05 08:40:08;;;;;;;;;;;;;;;21.07;33.16;100122.28;5010200;28;19977;-45
2023/12/05 08:42:33;;;;;;;;;;;;;;;21.07;32.95;100131.25;5010791;28;19914;-44
2023/12/05 08:44:59;;;;;;;;;;;;;;;21.07;32.82;100135.81;5006755;28;20017;-45
2023/12/05 08:47:24;;;;;;;;;;;;;;;21.06;33.11;100137.69;5011066;28;19914;-44
2023/12/05 08:49:49;;;;;;;;;;;;;;;21.08;32.96;100137.50;5011465;28;19961;-45
2023/12/05 08:52:14;;;;;;;;;;;;;;;21.06;33.10;100143.09;5010097;28;19914;-44
2023/12/05 08:54:39;;;;;;;;;;;;;;;21.07;32.95;100142.06;5004820;28;19922;-44
2023/12/05 08:57:04;;;;;;;;;;;;;;;21.07;32.95;100149.31;5016976;28;19929;-44
2023/12/05 08:59:30;;;;;;;;;;;;;;;21.06;32.99;100143.09;5016160;28;20280;-48
2023/12/05 09:01:55;;;;;;;;;;;;;;;21.10;32.84;100141.66;5010724;28;19925;-44
2023/12/05 09:04:20;;;;;;;;;;;;;;;21.10;33.00;100143.53;5010387;28;20013;-44
2023/12/05 09:06:45;;;;;;;;;;;;;;;21.11;32.74;100151.44;5009565;28;19922;-46
2023/12/05 09:09:10;;;;;;;;;;;;;;;21.12;32.66;100146.88;5007032;28;20423;-44
2023/12/05 09:11:37;;;;;;;;;;;;;;;21.14;32.65;100150.19;5019418;28;19913;-47
2023/12/05 09:14:02;;;;;;;;;;;;;;;21.15;32.51;100154.56;5080384;28;19918;-46
2023/12/05 09:16:28;;;;;;;;;;;;;;;21.15;32.57;100150.00;5004707;28;19929;-48
2023/12/05 09:18:53;;;;;;;;;;;;;;;21.17;32.69;100157.91;5008583;28;19914;-45
2023/12/05 09:21:18;;;;;;;;;;;;;;;21.16;32.87;100157.09;5081374;28;19914;-44
2023/12/05 09:23:43;;;;;;;;;;;;;;;21.17;32.82;100164.16;5008435;28;19960;-47
2023/12/05 09:26:09;;;;;;;;;;;;;;;21.17;32.89;100161.44;5015102;28;20028;-47
2023/12/05 09:28:34;;;;;;;;;;;;;;;21.17;32.81;100158.75;5015980;28;19920;-44
2023/12/05 09:30:59;;;;;;;;;;;;;;;21.17;32.71;100160.63;5012932;28;19929;-45
2023/12/05 09:33:25;;;;;;;;;;;;;;;21.16;33.00;100167.91;5007887;28;19922;-45
2023/12/05 09:35:50;;;;;;;;;;;;;;;21.15;32.82;100163.53;5011698;28;19925;-48
2023/12/05 09:38:15;;;;;;;;;;;;;;;21.17;32.81;100171.44;5013698;28;19920;-45
2023/12/05 09:40:40;;;;;;;;;;;;;;;21.15;32.83;100176.19;5016610;28;20419;-45
2023/12/05 09:43:06;;;;;;;;;;;;;;;21.13;32.84;100171.00;5076233;28;20017;-46
2023/12/05 09:45:35;;;;;;;;;;;;;;;21.20;32.96;100174.56;5081631;28;19920;-43
2023/12/05 09:48:00;;;;;;;;;;;;;;;21.18;32.72;100178.50;5008559;28;19983;-43
2023/12/05 09:50:26;;;;;;;;;;;;;;;21.17;32.88;100172.25;5020038;28;20326;-43
2023/12/05 09:52:51;;;;;;;;;;;;;;;21.19;32.93;100175.56;5098711;28;19920;-45
2023/12/05 09:55:16;;;;;;;;;;;;;;;21.21;32.79;100172.69;5091164;28;20208;-44
2023/12/05 09:57:41;;;;;;;;;;;;;;;21.23;32.70;100178.72;5113901;27;19913;-45
2023/12/05 10:00:07;;;;;;;;;;;;;;;21.21;32.87;100173.53;5094430;28;19947;-46
2023/12/05 10:02:32;;;;;;;;;;;;;;;21.22;32.82;100183.28;5092553;28;20006;-45
2023/12/05 10:05:01;;;;;;;;;;;;;;;21.24;33.06;100185.81;5089296;28;19939;-44
2023/12/05 10:07:26;;;;;;;;;;;;;;;21.22;32.73;100182.47;5091389;28;19963;-45
2023/12/05 10:09:52;;;;;;;;;;;;;;;21.23;32.92;100186.81;5095371;28;19924;-44
2023/12/05 10:12:17;;;;;;;;;;;;;;;21.22;32.80;100186.00;5096919;28;19923;-48
2023/12/05 10:14:42;;;;;;;;;;;;;;;21.22;33.23;100183.28;5092483;28;20310;-45
2023/12/05 10:17:08;;;;;;;;;;;;;;;21.23;33.03;100189.53;5091444;28;20086;-44
2023/12/05 10:19:33;;;;;;;;;;;;;;;21.28;32.81;100188.94;5087523;28;19947;-44
2023/12/05 10:21:58;;;;;;;;;;;;;;;21.28;32.72;100192.50;5092883;28;19916;-44
2023/12/05 10:24:24;;;;;;;;;;;;;;;21.33;32.78;100192.75;5099680;28;19919;-44
2023/12/05 10:26:49;;;;;;;;;;;;;;;21.40;32.85;100196.28;5092950;28;19924;-44
2023/12/05 10:29:15;;;;;;;;;;;;;;;21.40;32.58;100190.88;5092028;28;19912;-43
2023/12/05 10:31:41;;;;;;;;;;;;;;;21.42;32.81;100188.81;5092247;28;19988;-44
2023/12/05 10:34:06;;;;;;;;;;;;;;;21.42;32.59;100193.41;5085015;28;19951;-42
2023/12/05 10:36:31;;;;;;;;;;;;;;;21.41;32.72;100192.56;5097240;28;20291;-45
2023/12/05 10:38:57;;;;;;;;;;;;;;;21.41;32.46;100192.56;5097127;28;19979;-44
2023/12/05 10:41:23;;;;;;;;;;;;;;;21.41;32.63;100192.56;5093957;28;19975;-43
2023/12/05 10:43:49;;;;;;;;;;;;;;;21.45;32.45;100188.44;5090873;28;19917;-42
2023/12/05 10:46:14;;;;;;;;;;;;;;;21.50;32.47;100195.09;5090292;28;19927;-42
2023/12/05 10:48:39;;;;;;;;;;;;;;;21.50;32.56;100200.50;5089732;28;19915;-44
2023/12/05 10:51:04;;;;;;;;;;;;;;;21.51;32.56;100192.19;5094249;28;20021;-44
2023/12/05 10:53:29;;;;;;;;;;;;;;;21.56;32.45;100199.69;5091675;28;19924;-43
2023/12/05 10:55:55;;;;;;;;;;;;;;;21.59;32.32;100196.56;5072633;28;20143;-47
2023/12/05 10:58:20;;;;;;;;;;;;;;;21.67;32.06;100201.81;5090732;28;19935;-45
2023/12/05 11:00:45;;;;;;;;;;;;;;;21.73;31.99;100206.38;5088313;28;19913;-44
2023/12/05 11:03:12;;;;;;;;;;;;;;;21.71;32.24;100206.59;5085739;28;19920;-43
2023/12/05 11:05:37;;;;;;;;;;;;;;;21.75;32.12;100211.59;5091773;28;20347;-43
2023/12/05 11:08:04;;;;;;;;;;;;;;;21.80;31.99;100211.84;5098920;28;19920;-44
2023/12/05 11:10:29;;;;;;;;;;;;;;;21.84;31.90;100215.78;5093690;28;19917;-43
2023/12/05 11:12:54;;;;;;;;;;;;;;;21.85;31.84;100226.41;5090320;28;19964;-42
2023/12/05 11:15:24;;;;;;;;;;;;;;;21.87;31.83;100216.19;5092303;28;19920;-43
2023/12/05 11:17:53;;;;;;;;;;;;;;;21.89;31.84;100230.38;5085470;28;19920;-44
2023/12/05 11:20:23;;;;;;;;;;;;;;;21.87;31.88;100227.03;5092990;28;19995;-46
2023/12/05 11:23:00;;;;;;;;;;;;;;;21.89;31.76;100235.78;5094744;28;19919;-42
2023/12/05 11:25:25;;;;;;;;;;;;;;;21.92;31.91;100226.44;5093832;28;19916;-45
2023/12/05 11:27:58;;;;;;;;;;;;;;;21.87;32.09;100240.56;5089628;28;19928;-46
2023/12/05 11:30:42;;;;;;;;;;;;;;;21.90;32.07;100240.16;5089370;28;19973;-43
2023/12/05 11:33:27;;;;;;;;;;;;;;;21.91;31.82;100241.81;5099127;28;19931;-45
2023/12/05 11:35:58;;;;;;;;;;;;;;;21.92;31.81;100242.69;5096178;28;19916;-44
2023/12/05 11:38:23;;;;;;;;;;;;;;;21.92;32.04;100242.69;5109214;28;19919;-45
2023/12/05 11:41:07;;;;;;;;;;;;;;;21.90;31.80;100252.84;5096132;28;19916;-44
2023/12/05 11:43:32;;;;;;;;;;;;;;;21.93;31.94;100249.75;5095827;28;19989;-45
2023/12/05 11:45:58;;;;;;;;;;;;;;;21.96;32.11;100254.72;5088506;28;19916;-44
2023/12/05 11:48:24;;;;;;;;;;;;;;;21.98;32.13;100249.13;5093670;28;20351;-47
2023/12/05 11:50:49;;;;;;;;;;;;;;;22.00;32.20;100252.44;5097158;28;19958;-46
2023/12/05 11:53:14;;;;;;;;;;;;;;;22.02;31.98;100255.81;5099089;28;19962;-46
2023/12/05 11:55:41;;;;;;;;;;;;;;;22.03;32.09;100257.47;5098581;28;19924;-45
2023/12/05 11:58:24;;;;;;;;;;;;;;;22.05;31.85;100263.53;5098818;28;19913;-46
2023/12/05 12:00:49;;;;;;;;;;;;;;;22.00;32.20;100264.09;5086061;28;19976;-45
2023/12/05 12:03:14;;;;;;;;;;;;;;;;;;5096136;28;19969;-45
2023/12/05 12:05:39;;;;;;;;;;;;;;;;;;5094242;28;20031;-45
2023/12/05 12:08:04;;;;;;;;;;;;;;;21.98;32.04;100260.78;5096288;28;19916;-45
2023/12/05 12:10:32;;;;;;;;;;;;;;;21.99;32.16;100259.75;5095398;28;19917;-46
2023/12/05 12:12:57;;;;;;;;;;;;;;;21.99;32.09;100269.75;5089226;28;19977;-44
2023/12/05 12:15:23;;;;;;;;;;;;;;;22.04;32.32;100259.13;5094424;28;20355;-45
2023/12/05 12:17:48;;;;;;;;;;;;;;;22.11;32.08;100268.09;5099710;28;20456;-45
2023/12/05 12:20:17;;;;;;;;;;;;;;;22.15;32.13;100270.22;5093705;28;19916;-45
2023/12/05 12:22:45;;;;;;;;;;;;;;;22.21;31.94;100273.97;5093413;28;20405;-48
2023/12/05 12:25:13;;;;;;;;;;;;;;;22.26;31.68;100267.94;5097085;28;19916;-47
2023/12/05 12:27:39;;;;;;;;;;;;;;;22.30;31.67;100274.59;5093713;28;19922;-52
2023/12/05 12:30:07;;;;;;;;;;;;;;;22.36;31.58;100279.22;5093121;28;20014;-54
2023/12/05 12:32:32;;;;;;;;;;;;;;;22.40;31.65;100275.88;5096328;28;19916;-52
2023/12/05 12:34:59;;;;;;;;;;;;;;;22.46;31.54;100285.06;5095263;28;19916;-53